createdAt,value
2018-06-17T00:01:25.176Z,11.23
2018-06-17T00:03:53.259Z,11.43
2018-06-17T00:06:22.500Z,10.93
2018-06-17T00:08:50.784Z,12.20
2018-06-17T00:11:19.080Z,11.20
2018-06-17T00:13:47.556Z,10.50
2018-06-17T00:16:15.743Z,10.43
2018-06-17T00:18:43.828Z,10.23
2018-06-17T00:21:12.110Z,9.70
2018-06-17T00:23:40.247Z,9.10
2018-06-17T00:26:08.365Z,9.60
2018-06-17T00:28:37.122Z,8.60
2018-06-17T00:31:05.472Z,8.63
2018-06-17T00:33:34.188Z,8.25
2018-06-17T00:36:02.584Z,8.37
2018-06-17T00:38:31.981Z,8.57
2018-06-17T00:41:00.169Z,8.80
2018-06-17T00:43:30.173Z,8.60
2018-06-17T00:45:58.256Z,9.07
2018-06-17T00:48:26.718Z,7.80
2018-06-17T00:50:55.745Z,8.67
2018-06-17T00:53:23.844Z,8.30
2018-06-17T00:55:52.081Z,7.07
2018-06-17T00:58:20.134Z,7.72
2018-06-17T01:00:48.212Z,8.13
2018-06-17T01:03:16.296Z,6.63
2018-06-17T01:05:44.389Z,6.83
2018-06-17T01:08:12.501Z,6.70
2018-06-17T01:10:40.867Z,7.03
2018-06-17T01:13:08.912Z,6.50
2018-06-17T01:15:37.064Z,5.57
2018-06-17T01:18:05.667Z,6.85
2018-06-17T01:20:33.771Z,5.97
2018-06-17T01:23:01.868Z,5.93
2018-06-17T01:25:29.977Z,5.60
2018-06-17T01:27:59.129Z,5.50
2018-06-17T01:30:27.548Z,5.73
2018-06-17T01:32:55.888Z,6.53
2018-06-17T01:35:24.776Z,6.92
2018-06-17T01:37:52.880Z,6.00
2018-06-17T01:40:20.961Z,8.20
2018-06-17T01:42:49.044Z,5.17
2018-06-17T01:45:17.428Z,4.90
2018-06-17T01:47:45.495Z,4.73
2018-06-17T01:50:13.598Z,4.62
2018-06-17T01:52:41.671Z,4.40
2018-06-17T01:55:09.964Z,4.30
2018-06-17T01:57:38.089Z,6.50
2018-06-17T02:00:06.938Z,5.60
2018-06-17T02:02:35.092Z,5.90
2018-06-17T02:05:09.269Z,5.40
2018-06-17T02:07:42.642Z,5.27
2018-06-17T02:10:16.178Z,4.37
2018-06-17T02:12:45.333Z,4.57
2018-06-17T02:15:13.633Z,5.13
2018-06-17T02:17:42.532Z,4.30
2018-06-17T02:20:10.648Z,3.90
2018-06-17T02:22:38.859Z,6.00
2018-06-17T02:25:07.944Z,4.28
2018-06-17T02:27:36.123Z,5.00
2018-06-17T02:30:04.516Z,4.80
2018-06-17T02:32:33.251Z,4.90
2018-06-17T02:35:01.364Z,5.73
2018-06-17T02:37:29.558Z,4.93
2018-06-17T02:39:57.875Z,4.83
2018-06-17T02:42:26.160Z,4.53
2018-06-17T02:44:59.600Z,5.03
2018-06-17T02:47:32.955Z,5.00
2018-06-17T02:51:04.921Z,4.53
2018-06-17T02:53:38.357Z,5.03
2018-06-17T02:56:06.435Z,4.23
2018-06-17T02:58:34.524Z,4.23
2018-06-17T03:01:02.932Z,4.60
2018-06-17T03:03:31.049Z,3.80
2018-06-17T03:05:59.176Z,3.80
2018-06-17T03:08:27.646Z,4.08
2018-06-17T03:10:55.766Z,4.17
2018-06-17T03:13:25.533Z,3.87
2018-06-17T03:15:54.025Z,4.05
2018-06-17T03:18:22.116Z,3.57
2018-06-17T03:20:50.260Z,4.13
2018-06-17T03:23:18.695Z,5.07
2018-06-17T03:25:52.049Z,4.03
2018-06-17T03:28:25.615Z,3.33
2018-06-17T03:30:59.035Z,3.90
2018-06-17T03:33:32.724Z,4.10
2018-06-17T03:36:06.268Z,3.90
2018-06-17T03:38:34.381Z,4.30
2018-06-17T03:41:02.452Z,4.10
2018-06-17T03:43:30.756Z,4.07
2018-06-17T03:45:59.634Z,4.53
2018-06-17T03:48:27.775Z,3.57
2018-06-17T03:50:58.501Z,4.60
2018-06-17T03:53:26.808Z,4.07
2018-06-17T03:55:54.952Z,4.10
2018-06-17T03:58:23.294Z,4.00
2018-06-17T04:00:51.944Z,3.73
2018-06-17T04:03:20.102Z,4.20
2018-06-17T04:05:48.172Z,3.77
2018-06-17T04:08:16.898Z,3.72
2018-06-17T04:10:45.146Z,3.87
2018-06-17T04:13:13.400Z,3.90
2018-06-17T04:15:41.944Z,3.75
2018-06-17T04:18:11.117Z,3.40
2018-06-17T04:20:39.584Z,4.07
2018-06-17T04:23:10.477Z,3.23
2018-06-17T04:25:38.622Z,3.03
2018-06-17T04:28:06.699Z,3.60
2018-06-17T04:30:34.792Z,3.23
2018-06-17T04:33:02.890Z,2.77
2018-06-17T04:35:31.268Z,2.57
2018-06-17T04:37:59.380Z,3.70
2018-06-17T04:40:27.773Z,2.85
2018-06-17T04:42:56.061Z,3.30
2018-06-17T04:45:24.247Z,4.10
2018-06-17T04:47:52.475Z,3.20
2018-06-17T04:50:20.697Z,3.70
2018-06-17T04:52:49.011Z,3.33
2018-06-17T04:55:17.076Z,2.90
2018-06-17T04:57:45.164Z,3.27
2018-06-17T05:00:13.479Z,3.25
2018-06-17T05:02:41.552Z,4.22
2018-06-17T05:05:10.626Z,3.93
2018-06-17T05:07:38.788Z,4.70
2018-06-17T05:10:07.040Z,4.20
2018-06-17T05:12:35.123Z,4.20
2018-06-17T05:15:03.438Z,4.83
2018-06-17T05:17:31.509Z,3.85
2018-06-17T05:20:01.159Z,3.77
2018-06-17T05:22:29.224Z,3.20
2018-06-17T05:24:57.413Z,4.10
2018-06-17T05:27:25.554Z,3.80
2018-06-17T05:29:53.731Z,4.10
2018-06-17T05:32:21.888Z,3.70
2018-06-17T05:34:49.980Z,4.60
2018-06-17T05:37:18.032Z,3.63
2018-06-17T05:39:46.104Z,3.73
2018-06-17T05:42:15.538Z,3.87
2018-06-17T05:44:43.897Z,3.30
2018-06-17T05:47:12.103Z,3.93
2018-06-17T05:49:40.216Z,3.70
2018-06-17T05:52:08.331Z,3.90
2018-06-17T05:54:37.404Z,4.20
2018-06-17T05:57:05.524Z,3.80
2018-06-17T05:59:33.635Z,3.20
2018-06-17T06:02:01.736Z,4.00
2018-06-17T06:04:29.789Z,2.90
2018-06-17T06:06:57.951Z,3.27
2018-06-17T06:09:26.045Z,3.62
2018-06-17T06:11:54.950Z,3.12
2018-06-17T06:14:25.161Z,3.20
2018-06-17T06:16:53.299Z,3.00
2018-06-17T06:19:21.468Z,3.15
2018-06-17T06:21:49.702Z,2.98
2018-06-17T06:24:17.868Z,2.97
2018-06-17T06:26:46.022Z,2.77
2018-06-17T06:29:14.157Z,2.70
2018-06-17T06:31:42.245Z,2.70
2018-06-17T06:34:10.333Z,2.53
2018-06-17T06:36:38.616Z,2.50
2018-06-17T06:39:08.357Z,2.63
2018-06-17T06:41:36.443Z,2.40
2018-06-17T06:44:04.640Z,2.50
2018-06-17T06:46:32.776Z,2.50
2018-06-17T06:49:00.855Z,2.50
2018-06-17T06:51:29.149Z,2.70
2018-06-17T06:53:57.406Z,2.70
2018-06-17T06:56:25.698Z,2.43
2018-06-17T06:58:53.828Z,2.30
2018-06-17T07:01:33.335Z,3.30
2018-06-17T07:04:12.801Z,2.65
2018-06-17T07:06:52.024Z,2.10
2018-06-17T07:09:32.031Z,2.73
2018-06-17T07:12:00.460Z,2.67
2018-06-17T07:14:28.781Z,2.12
2018-06-17T07:17:08.192Z,2.50
2018-06-17T07:19:36.507Z,2.80
2018-06-17T07:22:05.436Z,2.90
2018-06-17T07:24:33.563Z,2.50
2018-06-17T07:27:13.080Z,2.83
2018-06-17T07:29:46.040Z,2.47
2018-06-17T07:32:14.279Z,2.60
2018-06-17T07:34:42.700Z,2.93
2018-06-17T07:37:11.099Z,2.73
2018-06-17T07:49:48.180Z,2.53
2018-06-17T07:52:29.036Z,2.53
2018-06-17T07:54:57.584Z,2.40
2018-06-17T07:57:27.041Z,2.30
2018-06-17T07:59:56.053Z,3.30
2018-06-17T08:02:24.289Z,2.58
2018-06-17T08:04:52.860Z,2.53
2018-06-17T08:07:22.024Z,2.55
2018-06-17T08:09:50.154Z,2.57
2018-06-17T08:12:18.327Z,2.27
2018-06-17T08:14:46.595Z,2.30
2018-06-17T08:17:14.699Z,2.60
2018-06-17T08:19:43.436Z,2.83
2018-06-17T08:22:11.803Z,2.37
2018-06-17T08:24:40.212Z,2.30
2018-06-17T08:27:08.717Z,2.20
2018-06-17T08:29:37.729Z,2.52
2018-06-17T08:32:06.005Z,2.20
2018-06-17T08:34:34.385Z,2.47
2018-06-17T08:37:02.561Z,2.30
2018-06-17T08:39:30.931Z,2.37
2018-06-17T08:41:59.279Z,2.37
2018-06-17T08:44:27.597Z,2.40
2018-06-17T08:46:55.807Z,3.03
2018-06-17T08:49:23.856Z,2.50
2018-06-17T08:51:51.957Z,2.50
2018-06-17T08:54:20.464Z,1.90
2018-06-17T08:56:49.603Z,2.60
2018-06-17T08:59:17.711Z,2.77
2018-06-17T09:01:45.779Z,2.50
2018-06-17T09:04:13.991Z,2.45
2018-06-17T09:06:42.282Z,2.43
2018-06-17T09:09:11.776Z,2.03
2018-06-17T09:11:39.864Z,2.17
2018-06-17T09:14:07.964Z,2.60
2018-06-17T09:16:36.239Z,2.50
2018-06-17T09:19:04.354Z,2.20
2018-06-17T09:21:31.750Z,1.90
2018-06-17T09:23:59.874Z,2.80
2018-06-17T09:26:27.976Z,2.33
2018-06-17T09:28:56.202Z,2.35
2018-06-17T09:31:25.415Z,2.30
2018-06-17T09:33:53.880Z,2.33
2018-06-17T09:36:22.121Z,2.63
2018-06-17T09:38:50.526Z,2.50
2018-06-17T09:41:18.696Z,2.50
2018-06-17T09:43:46.778Z,2.20
2018-06-17T09:46:14.876Z,2.63
2018-06-17T09:48:42.947Z,2.17
2018-06-17T09:51:11.024Z,2.17
2018-06-17T09:53:39.120Z,2.60
2018-06-17T09:56:07.404Z,2.30
2018-06-17T09:58:35.783Z,2.10
2018-06-17T10:01:03.856Z,2.20
2018-06-17T10:03:32.125Z,2.40
2018-06-17T10:06:00.295Z,2.43
2018-06-17T10:08:28.367Z,2.50
2018-06-17T10:10:58.747Z,3.40
2018-06-17T10:13:28.846Z,2.42
2018-06-17T10:15:57.660Z,2.83
2018-06-17T10:18:25.975Z,1.97
2018-06-17T10:20:54.104Z,2.10
2018-06-17T10:23:22.333Z,1.90
2018-06-17T10:25:50.507Z,2.03
2018-06-17T10:28:19.188Z,2.60
2018-06-17T10:30:48.568Z,2.23
2018-06-17T10:33:16.719Z,2.60
2018-06-17T10:35:45.564Z,2.35
2018-06-17T10:38:13.656Z,2.00
2018-06-17T10:40:41.756Z,2.40
2018-06-17T10:43:44.625Z,2.30
2018-06-17T10:46:12.749Z,2.03
2018-06-17T10:48:40.825Z,3.17
2018-06-17T10:51:08.908Z,2.10
2018-06-17T10:53:36.975Z,2.40
2018-06-17T10:56:05.231Z,2.00
2018-06-17T10:58:33.258Z,2.23
2018-06-17T11:01:01.469Z,2.43
2018-06-17T11:03:29.536Z,2.50
2018-06-17T11:05:58.828Z,2.50
2018-06-17T11:08:26.907Z,2.40
2018-06-17T11:10:55.008Z,2.47
2018-06-17T11:13:23.127Z,2.40
2018-06-17T11:15:51.203Z,2.33
2018-06-17T11:18:19.283Z,2.00
2018-06-17T11:20:47.626Z,2.00
2018-06-17T11:23:15.707Z,2.13
2018-06-17T11:25:43.760Z,2.20
2018-06-17T11:28:11.835Z,2.87
2018-06-17T11:30:40.231Z,2.50
2018-06-17T11:33:08.603Z,2.30
2018-06-17T11:35:36.724Z,2.72
2018-06-17T11:38:04.823Z,2.93
2018-06-17T11:40:32.998Z,2.00
2018-06-17T11:43:01.092Z,1.98
2018-06-17T11:45:29.161Z,1.92
2018-06-17T11:47:57.248Z,2.57
2018-06-17T11:50:25.428Z,2.10
2018-06-17T11:52:53.514Z,2.30
2018-06-17T11:55:21.587Z,2.00
2018-06-17T11:57:49.658Z,2.30
2018-06-17T12:00:17.756Z,2.10
2018-06-17T12:02:45.831Z,2.50
2018-06-17T12:05:14.023Z,3.50
2018-06-17T12:07:42.056Z,2.00
2018-06-17T12:10:10.140Z,2.40
2018-06-17T12:12:38.218Z,1.90
2018-06-17T12:15:06.370Z,1.93
2018-06-17T12:17:34.615Z,2.43
2018-06-17T12:20:02.733Z,1.80
2018-06-17T12:22:31.287Z,1.52
2018-06-17T12:24:59.556Z,1.90
2018-06-17T12:27:27.806Z,1.90
2018-06-17T12:29:56.089Z,1.73
2018-06-17T12:32:24.399Z,1.80
2018-06-17T12:34:52.472Z,1.93
2018-06-17T12:37:21.048Z,3.00
2018-06-17T12:39:49.142Z,1.93
2018-06-17T12:42:17.199Z,2.77
2018-06-17T12:44:45.567Z,2.30
2018-06-17T12:47:13.648Z,2.00
2018-06-17T12:49:42.029Z,1.87
2018-06-17T12:52:10.134Z,1.90
2018-06-17T12:54:38.363Z,1.93
2018-06-17T12:57:06.435Z,2.70
2018-06-17T12:59:34.516Z,1.90
2018-06-17T13:02:02.613Z,2.17
2018-06-17T13:04:30.815Z,2.10
2018-06-17T13:06:58.926Z,2.20
2018-06-17T13:09:27.021Z,1.90
2018-06-17T13:11:55.107Z,1.90
2018-06-17T13:14:23.261Z,2.73
2018-06-17T13:16:51.642Z,2.00
2018-06-17T13:19:19.735Z,1.83
2018-06-17T13:21:47.825Z,2.60
2018-06-17T13:24:16.244Z,1.50
2018-06-17T13:26:45.183Z,2.67
2018-06-17T13:29:13.267Z,1.77
2018-06-17T13:31:41.364Z,2.20
2018-06-17T13:34:09.530Z,3.00
2018-06-17T13:36:37.876Z,2.10
2018-06-17T13:39:07.419Z,2.10
2018-06-17T13:41:35.627Z,2.42
2018-06-17T13:44:03.829Z,2.23
2018-06-17T13:46:31.987Z,2.30
2018-06-17T13:49:00.047Z,3.33
2018-06-17T13:51:28.150Z,2.63
2018-06-17T13:53:56.411Z,5.30
2018-06-17T13:56:24.504Z,5.00
2018-06-17T13:58:52.705Z,9.60
2018-06-17T14:01:20.912Z,7.43
2018-06-17T14:03:49.108Z,8.33
2018-06-17T14:06:17.296Z,6.17
2018-06-17T14:08:46.256Z,2.23
2018-06-17T14:11:14.437Z,1.85
2018-06-17T14:13:42.654Z,2.10
2018-06-17T14:16:10.757Z,2.03
2018-06-17T14:18:38.995Z,1.90
2018-06-17T14:21:07.245Z,2.10
2018-06-17T14:23:35.419Z,2.10
2018-06-17T14:26:03.504Z,2.07
2018-06-17T14:28:31.802Z,3.17
2018-06-17T14:30:59.982Z,6.40
2018-06-17T14:33:28.258Z,9.20
2018-06-17T14:35:56.532Z,2.37
2018-06-17T14:38:24.602Z,5.53
2018-06-17T14:40:58.001Z,6.87
2018-06-17T14:43:31.505Z,3.90
2018-06-17T14:46:05.110Z,2.43
2018-06-17T14:48:38.742Z,2.43
2018-06-17T14:51:12.284Z,4.30
2018-06-17T14:53:40.367Z,5.60
2018-06-17T14:56:08.469Z,5.60
2018-06-17T14:58:36.566Z,2.40
2018-06-17T15:01:04.737Z,2.00
2018-06-17T15:03:32.929Z,2.22
2018-06-17T15:06:01.117Z,2.57
2018-06-17T15:08:29.233Z,2.47
2018-06-17T15:10:57.464Z,2.03
2018-06-17T15:13:25.572Z,2.60
2018-06-17T15:15:53.701Z,1.90
2018-06-17T15:18:21.889Z,2.00
2018-06-17T15:20:50.025Z,2.30
2018-06-17T15:23:18.357Z,2.10
2018-06-17T15:25:46.832Z,2.30
2018-06-17T15:28:14.980Z,2.50
2018-06-17T15:30:43.084Z,2.07
2018-06-17T15:33:16.436Z,3.80
2018-06-17T15:35:49.964Z,2.80
2018-06-17T15:38:23.350Z,2.63
2018-06-17T15:40:56.796Z,3.50
2018-06-17T15:43:25.684Z,2.27
2018-06-17T15:45:53.812Z,2.80
2018-06-17T15:48:21.909Z,3.70
2018-06-17T15:50:50.161Z,2.20
2018-06-17T15:53:18.199Z,2.63
2018-06-17T15:55:46.408Z,3.27
2018-06-17T15:58:14.709Z,3.60
2018-06-17T16:00:42.787Z,2.70
2018-06-17T16:03:11.148Z,2.37
2018-06-17T16:05:39.257Z,2.40
2018-06-17T16:08:08.081Z,2.10
2018-06-17T16:10:36.268Z,2.60
2018-06-17T16:13:10.336Z,2.30
2018-06-17T16:15:43.702Z,2.20
2018-06-17T16:18:17.147Z,2.30
2018-06-17T16:20:50.502Z,2.37
2018-06-17T16:23:18.776Z,2.00
2018-06-17T16:25:46.828Z,2.00
2018-06-17T16:28:15.086Z,2.03
2018-06-17T16:30:43.226Z,2.73
2018-06-17T16:33:11.307Z,2.87
2018-06-17T16:35:39.376Z,2.60
2018-06-17T16:38:07.476Z,2.23
2018-06-17T16:40:35.592Z,2.90
2018-06-17T16:43:03.669Z,2.27
2018-06-17T16:45:31.756Z,1.97
2018-06-17T16:47:59.944Z,2.13
2018-06-17T16:50:28.136Z,2.13
2018-06-17T16:53:01.495Z,2.20
2018-06-17T16:55:36.102Z,2.27
2018-06-17T16:58:09.664Z,2.67
2018-06-17T17:00:37.877Z,2.42
2018-06-17T17:03:06.196Z,2.15
2018-06-17T17:05:34.513Z,1.80
2018-06-17T17:08:02.975Z,2.33
2018-06-17T17:10:31.687Z,2.60
2018-06-17T17:12:59.913Z,2.33
2018-06-17T17:15:46.364Z,2.10
2018-06-17T17:21:22.860Z,2.00
2018-06-17T17:23:50.933Z,2.10
2018-06-17T17:26:19.260Z,2.80
2018-06-17T17:28:50.807Z,2.30
2018-06-17T17:31:18.896Z,2.52
2018-06-17T17:33:52.335Z,2.20
2018-06-17T17:36:26.048Z,2.50
2018-06-17T17:38:59.383Z,2.08
2018-06-17T17:41:27.484Z,2.10
2018-06-17T17:43:55.620Z,2.10
2018-06-17T17:46:28.968Z,2.00
2018-06-17T17:48:57.085Z,2.10
2018-06-17T17:51:26.164Z,1.90
2018-06-17T17:53:54.313Z,1.98
2018-06-17T17:56:22.359Z,1.95
2018-06-17T17:58:50.443Z,1.90
2018-06-17T18:01:18.881Z,1.90
2018-06-17T18:03:46.972Z,1.60
2018-06-17T18:06:15.073Z,2.37
2018-06-17T18:08:43.161Z,2.20
2018-06-17T18:11:11.255Z,2.67
2018-06-17T18:13:39.324Z,2.33
2018-06-17T18:16:07.651Z,2.10
2018-06-17T18:18:37.831Z,1.80
2018-06-17T18:21:06.842Z,2.30
2018-06-17T18:23:35.407Z,1.98
2018-06-17T18:26:08.783Z,2.37
2018-06-17T18:28:42.312Z,2.23
2018-06-17T18:31:10.425Z,1.77
2018-06-17T18:33:43.936Z,1.97
2018-06-17T18:36:14.224Z,2.27
2018-06-17T18:38:44.384Z,2.17
2018-06-17T18:41:15.342Z,2.00
2018-06-17T18:43:44.447Z,1.90
2018-06-17T18:46:13.709Z,2.20
2018-06-17T18:48:41.942Z,2.80
2018-06-17T18:51:10.296Z,2.33
2018-06-17T18:53:38.625Z,2.20
2018-06-17T18:56:06.771Z,2.00
2018-06-17T18:58:34.895Z,2.37
2018-06-17T19:01:02.961Z,2.10
2018-06-17T19:03:31.053Z,2.20
2018-06-17T19:05:59.162Z,2.30
2018-06-17T19:08:32.525Z,2.87
2018-06-17T19:11:06.204Z,2.73
2018-06-17T19:13:39.603Z,2.70
2018-06-17T19:16:15.044Z,2.57
2018-06-17T19:18:43.122Z,2.67
2018-06-17T19:21:11.613Z,3.37
2018-06-17T19:23:39.797Z,2.73
2018-06-17T19:26:08.152Z,2.00
2018-06-17T19:28:36.260Z,2.63
2018-06-17T19:31:04.721Z,3.00
2018-06-17T19:33:34.064Z,2.60
2018-06-17T19:36:02.220Z,2.33
2018-06-17T19:38:30.451Z,2.45
2018-06-17T19:40:58.667Z,2.40
2018-06-17T19:43:26.826Z,2.70
2018-06-17T19:45:55.137Z,2.70
2018-06-17T19:48:23.232Z,3.00
2018-06-17T19:50:56.642Z,2.15
2018-06-17T19:53:30.216Z,2.20
2018-06-17T19:56:04.088Z,2.40
2018-06-17T19:59:37.487Z,3.37
2018-06-17T20:02:05.614Z,2.60
2018-06-17T20:04:34.184Z,2.20
2018-06-17T20:07:02.255Z,2.33
2018-06-17T20:09:30.326Z,2.63
2018-06-17T20:11:58.795Z,2.30
2018-06-17T20:14:28.750Z,3.80
2018-06-17T20:16:56.851Z,2.73
2018-06-17T20:19:25.194Z,2.37
2018-06-17T20:21:53.288Z,3.30
2018-06-17T20:24:21.375Z,3.43
2018-06-17T20:26:49.453Z,3.90
2018-06-17T20:29:18.136Z,2.20
2018-06-17T20:31:51.521Z,2.60
2018-06-17T20:35:25.380Z,2.30
2018-06-17T20:37:58.913Z,2.00
2018-06-17T20:40:32.416Z,2.93
2018-06-17T20:43:05.966Z,2.37
2018-06-17T20:45:35.344Z,2.30
2018-06-17T20:48:03.434Z,2.90
2018-06-17T20:50:31.540Z,2.50
2018-06-17T20:52:59.630Z,2.83
2018-06-17T20:55:27.844Z,3.40
2018-06-17T20:57:56.058Z,2.97
2018-06-17T21:00:24.681Z,2.52
2018-06-17T21:02:52.843Z,2.93
2018-06-17T21:05:20.939Z,2.73
2018-06-17T21:07:49.816Z,2.30
2018-06-17T21:10:17.903Z,3.50
2018-06-17T21:12:45.980Z,3.05
2018-06-17T21:15:17.107Z,2.92
2018-06-17T21:17:45.499Z,2.90
2018-06-17T21:20:18.795Z,2.80
2018-06-17T21:22:52.357Z,2.47
2018-06-17T21:25:27.639Z,3.22
2018-06-17T21:27:57.421Z,3.37
2018-06-17T21:30:25.508Z,3.00
2018-06-17T21:32:53.575Z,3.23
2018-06-17T21:35:21.689Z,3.77
2018-06-17T21:37:49.775Z,2.83
2018-06-17T21:40:18.017Z,2.40
2018-06-17T21:42:46.664Z,2.67
2018-06-17T21:45:14.894Z,3.60
2018-06-17T21:47:43.678Z,3.33
2018-06-17T21:50:14.883Z,2.87
2018-06-17T21:52:43.648Z,3.70
2018-06-17T21:55:12.976Z,3.02
2018-06-17T21:57:41.052Z,2.90
2018-06-17T22:02:41.941Z,3.10
2018-06-17T22:05:10.017Z,3.10
2018-06-17T22:07:43.503Z,2.90
2018-06-17T22:10:16.960Z,3.60
2018-06-17T22:12:50.504Z,3.13
2018-06-17T22:15:23.952Z,2.80
2018-06-17T22:17:55.193Z,3.13
2018-06-17T22:20:23.276Z,3.20
2018-06-17T22:22:51.368Z,3.30
2018-06-17T22:25:19.592Z,3.03
2018-06-17T22:27:47.772Z,2.83
2018-06-17T22:30:16.300Z,3.27
2018-06-17T22:32:44.380Z,3.10
2018-06-17T22:35:12.612Z,3.77
2018-06-17T22:37:40.863Z,3.40
2018-06-17T22:40:09.689Z,2.70
2018-06-17T22:42:38.957Z,3.00
2018-06-17T22:45:07.388Z,2.87
2018-06-17T22:47:40.799Z,2.37
2018-06-17T22:50:09.596Z,2.90
2018-06-17T22:52:49.892Z,2.63
2018-06-17T22:55:18.057Z,2.40
2018-06-17T22:57:52.511Z,2.90
2018-06-17T23:00:26.036Z,4.10
2018-06-17T23:02:59.680Z,3.05
2018-06-17T23:05:33.034Z,3.00
2018-06-17T23:08:06.448Z,2.73
2018-06-17T23:10:34.534Z,3.70
2018-06-17T23:13:02.606Z,2.95
2018-06-17T23:15:30.699Z,3.83
2018-06-17T23:17:58.820Z,3.35
2018-06-17T23:20:27.217Z,3.22
2018-06-17T23:22:56.341Z,3.00
2018-06-17T23:25:25.125Z,3.90
2018-06-17T23:27:53.264Z,3.00
2018-06-17T23:30:21.364Z,3.23
2018-06-17T23:32:49.464Z,3.10
2018-06-17T23:35:18.679Z,4.00
2018-06-17T23:37:46.864Z,3.70
2018-06-17T23:40:14.948Z,3.67
2018-06-17T23:42:43.401Z,2.92
2018-06-17T23:45:11.588Z,2.97
2018-06-17T23:48:45.125Z,2.83
2018-06-17T23:51:18.601Z,2.97
2018-06-17T23:53:52.128Z,3.95
2018-06-17T23:56:20.456Z,3.00
2018-06-17T23:58:48.540Z,3.47
